Ben — 9VJM4 — position and weather

sailwx.info

Track history (hours):
 
Tides and Currents Weather Stations Pressure Air Temp Water Temp Dewpoint Dewpoint Depression Visibility Wind Speed Wind Dir Waves Ship Positions

Ben

Last reported at 2014-Jul-28 09:33 UTC. Time now 2014-Jul-30 15:12 UTC.
Position N 22°02' E 113°51'.

Length 127 m; draft 5.7 m.

Type: Ship. MMSI: 565611000.

Date/timePositionNaut miles runAvg speedWind from/ knotsBaromVisibWave heightAir tempDewpointWater temp
2014-Jul-28 09:33N 22°02' E 113°51'1212.3
2014-Jul-28 08:33N 22°14' E 113°48'1413.2
2014-Jul-28 07:28N 22°28' E 113°45'2512.3
2014-Jul-28 05:25N 22°51' E 113°34'0 0.0
2014-Jul-27 23:25N 22°51' E 113°33'0 0.0
2014-Jul-27 04:03N 22°51' E 113°33'1 2.9
2014-Jul-27 03:33N 22°50' E 113°35'2311.3
2014-Jul-27 01:28N 22°29' E 113°45'1112.2
2014-Jul-27 00:33N 22°18' E 113°48'9 8.8
2014-Jul-26 23:33N 22°09' E 113°48'2 1.6
2014-Jul-26 22:29N 22°07' E 113°47'0 0.0
2014-Jul-26 21:17N 22°07' E 113°47'0 0.0
2014-Jul-26 20:29N 22°07' E 113°47'0 0.1
2014-Jul-26 19:29N 22°07' E 113°47'0 0.0
2014-Jul-26 18:29N 22°07' E 113°47'0 0.0
2014-Jul-26 17:29N 22°07' E 113°47'0 0.1
2014-Jul-26 16:29N 22°07' E 113°47'0 0.1
2014-Jul-26 15:29N 22°07' E 113°47'0 0.0
2014-Jul-26 14:29N 22°07' E 113°47'0 0.0
2014-Jul-26 13:29N 22°07' E 113°47'0 0.1
2014-Jul-26 12:29N 22°07' E 113°47'1 0.8
2014-Jul-26 11:33N 22°07' E 113°48'10 9.7
2014-Jul-26 10:33N 21°57' E 113°51'  
2014-Jul-21 22:15N 01°14' E 104°04'912.8
2014-Jul-21 21:34N 01°13' E 103°55'  
2014-Jul-18 18:15N 01°08' E 103°43'912.8
2014-Jul-18 17:34N 01°12' E 103°51'1211.6
2014-Jul-18 16:34N 01°16' E 104°02'  
Track history (hours):
 
Tides and Currents Weather Stations Pressure Air Temp Water Temp Dewpoint Dewpoint Depression Visibility Wind Speed Wind Dir Waves Ship Positions

Ben

Last reported at 2014-Jul-28 09:33 UTC. Time now 2014-Jul-30 15:12 UTC.
Position N 22°02' E 113°51'.

Length 127 m; draft 5.7 m.

Type: Ship. MMSI: 565611000.

Date/timePositionNaut miles runAvg speedWind from/ knotsBaromVisibWave heightAir tempDewpointWater temp
2014-Jul-28 09:33N 22°02' E 113°51'1212.3
2014-Jul-28 08:33N 22°14' E 113°48'1413.2
2014-Jul-28 07:28N 22°28' E 113°45'2512.3
2014-Jul-28 05:25N 22°51' E 113°34'0 0.0
2014-Jul-27 23:25N 22°51' E 113°33'0 0.0
2014-Jul-27 04:03N 22°51' E 113°33'1 2.9
2014-Jul-27 03:33N 22°50' E 113°35'2311.3
2014-Jul-27 01:28N 22°29' E 113°45'1112.2
2014-Jul-27 00:33N 22°18' E 113°48'9 8.8
2014-Jul-26 23:33N 22°09' E 113°48'2 1.6
2014-Jul-26 22:29N 22°07' E 113°47'0 0.0
2014-Jul-26 21:17N 22°07' E 113°47'0 0.0
2014-Jul-26 20:29N 22°07' E 113°47'0 0.1
2014-Jul-26 19:29N 22°07' E 113°47'0 0.0
2014-Jul-26 18:29N 22°07' E 113°47'0 0.0
2014-Jul-26 17:29N 22°07' E 113°47'0 0.1
2014-Jul-26 16:29N 22°07' E 113°47'0 0.1
2014-Jul-26 15:29N 22°07' E 113°47'0 0.0
2014-Jul-26 14:29N 22°07' E 113°47'0 0.0
2014-Jul-26 13:29N 22°07' E 113°47'0 0.1
2014-Jul-26 12:29N 22°07' E 113°47'1 0.8
2014-Jul-26 11:33N 22°07' E 113°48'10 9.7
2014-Jul-26 10:33N 21°57' E 113°51'  
2014-Jul-21 22:15N 01°14' E 104°04'912.8
2014-Jul-21 21:34N 01°13' E 103°55'  
2014-Jul-18 18:15N 01°08' E 103°43'912.8
2014-Jul-18 17:34N 01°12' E 103°51'1211.6
2014-Jul-18 16:34N 01°16' E 104°02'  

Dump ship's entire track history